createdAt,value
2023-06-11T00:00:52.282Z,59.22
2023-06-11T00:01:52.258Z,59.43
2023-06-11T00:02:52.421Z,59.26
2023-06-11T00:03:52.326Z,59.56
2023-06-11T00:04:52.470Z,59.47
2023-06-11T00:05:52.306Z,59.37
2023-06-11T00:06:52.277Z,59.35
2023-06-11T00:07:52.297Z,59.39
2023-06-11T00:08:52.277Z,59.34
2023-06-11T00:09:52.314Z,59.30
2023-06-11T00:10:52.306Z,59.30
2023-06-11T00:11:52.291Z,59.19
2023-06-11T00:12:52.327Z,59.06
2023-06-11T00:13:52.298Z,59.06
2023-06-11T00:14:52.327Z,59.15
2023-06-11T00:15:52.407Z,59.19
2023-06-11T00:16:52.361Z,59.30
2023-06-11T00:17:52.424Z,59.50
2023-06-11T00:18:52.380Z,59.30
2023-06-11T00:19:52.412Z,59.30
2023-06-11T00:20:52.406Z,59.44
2023-06-11T00:21:52.420Z,59.48
2023-06-11T00:22:52.421Z,59.49
2023-06-11T00:23:52.466Z,59.26
2023-06-11T00:24:52.464Z,59.40
2023-06-11T00:25:52.509Z,59.34
2023-06-11T00:26:52.461Z,59.28
2023-06-11T00:27:52.506Z,59.17
2023-06-11T00:28:52.551Z,59.08
2023-06-11T00:29:52.532Z,59.13
2023-06-11T00:30:52.544Z,59.11
2023-06-11T00:31:52.595Z,59.23
2023-06-11T00:32:52.623Z,59.00
2023-06-11T00:33:52.558Z,59.38
2023-06-11T00:34:52.574Z,59.53
2023-06-11T00:35:52.591Z,59.72
2023-06-11T00:36:52.585Z,59.78
2023-06-11T00:37:52.599Z,59.60
2023-06-11T00:38:52.612Z,59.72
2023-06-11T00:39:52.655Z,59.58
2023-06-11T00:40:52.644Z,59.55
2023-06-11T00:41:52.677Z,59.74
2023-06-11T00:42:52.676Z,59.81
2023-06-11T00:43:52.680Z,59.67
2023-06-11T00:44:52.698Z,59.76
2023-06-11T00:45:52.969Z,59.68
2023-06-11T00:46:52.716Z,59.53
2023-06-11T00:47:52.871Z,59.60
2023-06-11T00:48:52.784Z,59.68
2023-06-11T00:49:52.778Z,59.72
2023-06-11T00:50:52.870Z,59.69
2023-06-11T00:51:52.783Z,59.74
2023-06-11T00:52:52.788Z,59.93
2023-06-11T00:53:52.814Z,59.91
2023-06-11T00:54:52.804Z,59.99
2023-06-11T00:55:52.884Z,60.07
2023-06-11T00:56:52.886Z,60.11
2023-06-11T00:57:52.878Z,60.16
2023-06-11T00:58:52.922Z,60.36
2023-06-11T00:59:52.897Z,60.41
2023-06-11T01:00:52.974Z,60.22
2023-06-11T01:01:52.954Z,60.26
2023-06-11T01:02:53.019Z,60.55
2023-06-11T01:03:53.054Z,60.59
2023-06-11T01:04:53.054Z,60.52
2023-06-11T01:05:53.100Z,60.79
2023-06-11T01:06:53.046Z,60.73
2023-06-11T01:07:53.115Z,60.69
2023-06-11T01:08:53.145Z,60.54
2023-06-11T01:09:53.193Z,60.70
2023-06-11T01:10:53.300Z,60.52
2023-06-11T01:11:53.227Z,60.62
2023-06-11T01:12:53.287Z,60.74
2023-06-11T01:13:53.344Z,60.96
2023-06-11T01:14:53.359Z,60.83
2023-06-11T01:15:53.472Z,60.89
2023-06-11T01:16:53.643Z,60.91
2023-06-11T01:17:53.554Z,60.74
2023-06-11T01:18:53.545Z,60.83
2023-06-11T01:19:53.666Z,60.84
2023-06-11T01:20:53.643Z,60.94
2023-06-11T01:21:53.748Z,61.02
2023-06-11T01:22:53.758Z,61.36
2023-06-11T01:23:53.888Z,61.17
2023-06-11T01:24:53.841Z,61.26
2023-06-11T01:25:53.875Z,61.29
2023-06-11T01:26:53.943Z,61.15
2023-06-11T01:27:53.989Z,61.24
2023-06-11T01:28:54.049Z,61.22
2023-06-11T01:29:54.104Z,61.09
2023-06-11T01:30:54.260Z,60.99
2023-06-11T01:31:54.261Z,61.15
2023-06-11T01:32:54.430Z,61.42
2023-06-11T01:33:54.351Z,61.15
2023-06-11T01:34:54.400Z,61.06
2023-06-11T01:35:54.429Z,61.04
2023-06-11T01:36:54.502Z,61.21
2023-06-11T01:37:54.531Z,61.31
2023-06-11T01:38:54.605Z,61.20
2023-06-11T01:39:54.799Z,61.20
2023-06-11T01:40:54.748Z,61.22
2023-06-11T01:41:54.815Z,61.19
2023-06-11T01:42:54.832Z,61.30
2023-06-11T01:43:54.953Z,61.54
2023-06-11T01:44:54.942Z,61.39
2023-06-11T01:45:54.985Z,61.07
2023-06-11T01:46:55.100Z,61.01
2023-06-11T01:47:55.140Z,60.86
2023-06-11T01:48:55.155Z,60.69
2023-06-11T01:49:55.182Z,60.76
2023-06-11T01:50:55.292Z,60.70
2023-06-11T01:51:55.357Z,60.65
2023-06-11T01:52:55.400Z,60.81
2023-06-11T01:53:55.463Z,60.79
2023-06-11T01:54:55.493Z,60.86
2023-06-11T01:55:55.592Z,61.15
2023-06-11T01:56:55.650Z,61.32
2023-06-11T01:57:55.670Z,61.33
2023-06-11T01:58:55.728Z,61.20
2023-06-11T01:59:55.829Z,61.07
2023-06-11T02:00:55.911Z,61.33
2023-06-11T02:01:56.045Z,61.09
2023-06-11T02:02:56.064Z,61.10
2023-06-11T02:03:56.093Z,61.10
2023-06-11T02:04:56.105Z,61.37
2023-06-11T02:05:56.153Z,61.73
2023-06-11T02:06:56.226Z,61.66
2023-06-11T02:07:56.269Z,61.50
2023-06-11T02:08:56.309Z,61.81
2023-06-11T02:09:56.338Z,61.49
2023-06-11T02:10:56.467Z,61.46
2023-06-11T02:11:56.512Z,61.51
2023-06-11T02:12:56.603Z,61.65
2023-06-11T02:13:56.654Z,61.63
2023-06-11T02:14:56.691Z,61.60
2023-06-11T02:15:56.760Z,61.45
2023-06-11T02:16:56.914Z,61.41
2023-06-11T02:17:56.931Z,61.20
2023-06-11T02:18:56.945Z,60.99
2023-06-11T02:19:57.078Z,60.97
2023-06-11T02:20:57.086Z,60.70
2023-06-11T02:21:57.102Z,60.68
2023-06-11T02:22:57.140Z,60.59
2023-06-11T02:23:57.185Z,60.65
2023-06-11T02:24:57.219Z,60.68
2023-06-11T02:25:57.301Z,60.93
2023-06-11T02:26:57.280Z,61.16
2023-06-11T02:27:57.355Z,61.24
2023-06-11T02:28:57.397Z,60.91
2023-06-11T02:29:57.473Z,60.99
2023-06-11T02:30:57.518Z,61.05
2023-06-11T02:31:57.568Z,60.90
2023-06-11T02:32:57.631Z,60.80
2023-06-11T02:33:57.641Z,60.90
2023-06-11T02:34:57.617Z,60.88
2023-06-11T02:35:57.693Z,60.99
2023-06-11T02:36:57.763Z,61.19
2023-06-11T02:37:57.826Z,61.31
2023-06-11T02:38:57.864Z,61.41
2023-06-11T02:39:57.964Z,61.47
2023-06-11T02:40:58.033Z,61.35
2023-06-11T02:41:58.058Z,61.47
2023-06-11T02:42:58.112Z,61.71
2023-06-11T02:43:58.138Z,61.57
2023-06-11T02:44:58.153Z,61.69
2023-06-11T02:45:58.225Z,61.73
2023-06-11T02:46:58.256Z,61.75
2023-06-11T02:47:58.319Z,61.68
2023-06-11T02:48:58.296Z,61.72
2023-06-11T02:49:58.370Z,61.54
2023-06-11T02:50:58.420Z,61.54
2023-06-11T02:51:58.482Z,61.65
2023-06-11T02:52:58.551Z,61.41
2023-06-11T02:53:59.573Z,61.39
2023-06-11T02:54:58.652Z,61.43
2023-06-11T02:55:58.778Z,61.34
2023-06-11T02:56:58.805Z,61.37
2023-06-11T02:57:58.816Z,61.48
2023-06-11T02:58:58.920Z,61.26
2023-06-11T02:59:58.967Z,61.14
2023-06-11T03:00:59.009Z,61.11
2023-06-11T03:01:59.089Z,61.25
2023-06-11T03:02:59.140Z,61.36
2023-06-11T03:03:59.186Z,61.21
2023-06-11T03:04:59.258Z,60.92
2023-06-11T03:06:01.746Z,60.87
2023-06-11T03:06:59.214Z,61.08
2023-06-11T03:07:59.180Z,61.17
2023-06-11T03:08:59.198Z,61.23
2023-06-11T03:09:59.180Z,60.97
2023-06-11T03:10:59.204Z,61.14
2023-06-11T03:11:59.191Z,61.30
2023-06-11T03:12:59.174Z,61.15
2023-06-11T03:13:59.183Z,61.14
2023-06-11T03:14:59.158Z,61.15
2023-06-11T03:15:59.172Z,60.91
2023-06-11T03:16:59.138Z,60.67
2023-06-11T03:17:59.193Z,60.69
2023-06-11T03:18:59.091Z,60.50
2023-06-11T03:19:59.105Z,60.44
2023-06-11T03:20:59.210Z,60.24
2023-06-11T03:21:59.130Z,60.17
2023-06-11T03:22:59.085Z,60.25
2023-06-11T03:23:59.131Z,60.11
2023-06-11T03:24:59.090Z,60.02
2023-06-11T03:25:59.078Z,60.20
2023-06-11T03:26:59.107Z,59.92
2023-06-11T03:27:59.056Z,59.78
2023-06-11T03:28:59.032Z,60.12
2023-06-11T03:29:59.058Z,60.35
2023-06-11T03:30:59.076Z,60.32
2023-06-11T03:31:59.133Z,60.45
2023-06-11T03:32:59.080Z,60.49
2023-06-11T03:33:59.016Z,60.61
2023-06-11T03:34:59.034Z,60.54
2023-06-11T03:35:59.035Z,60.60
2023-06-11T03:36:59.045Z,60.73
2023-06-11T03:37:59.016Z,60.51
2023-06-11T03:38:58.970Z,60.59
2023-06-11T03:39:58.985Z,60.74
2023-06-11T03:40:58.987Z,60.74
2023-06-11T03:41:58.951Z,60.48
2023-06-11T03:43:00.806Z,60.48
2023-06-11T03:43:58.965Z,60.64
2023-06-11T03:44:58.935Z,60.99
2023-06-11T03:45:58.964Z,60.98
2023-06-11T03:46:58.974Z,60.82
2023-06-11T03:47:58.990Z,61.08
2023-06-11T03:48:58.998Z,61.35
2023-06-11T03:49:59.003Z,60.96
2023-06-11T03:50:59.009Z,61.06
2023-06-11T03:51:59.024Z,61.31
2023-06-11T03:52:59.073Z,61.43
2023-06-11T03:53:59.172Z,61.58
2023-06-11T03:54:59.246Z,61.66
2023-06-11T03:55:59.332Z,61.64
2023-06-11T03:56:59.304Z,61.81
2023-06-11T03:57:59.314Z,61.81
2023-06-11T03:58:59.368Z,61.60
2023-06-11T03:59:59.441Z,61.45
2023-06-11T04:00:59.455Z,61.36
2023-06-11T04:01:59.521Z,61.24
2023-06-11T04:03:00.568Z,61.32
2023-06-11T04:03:59.645Z,60.97
2023-06-11T04:04:59.603Z,60.84
2023-06-11T04:05:59.664Z,60.90
2023-06-11T04:06:59.738Z,61.07
2023-06-11T04:07:59.780Z,61.08
2023-06-11T04:08:59.811Z,60.99
2023-06-11T04:09:59.852Z,61.18
2023-06-11T04:10:59.930Z,61.17
2023-06-11T04:11:59.913Z,60.99
2023-06-11T04:12:59.984Z,61.02
2023-06-11T04:13:59.985Z,61.09
2023-06-11T04:15:00.049Z,60.79
2023-06-11T04:16:00.118Z,60.65
2023-06-11T04:17:00.163Z,60.62
2023-06-11T04:18:00.213Z,60.48
2023-06-11T04:19:00.161Z,60.54
2023-06-11T04:20:00.226Z,60.49
2023-06-11T04:21:00.240Z,60.51
2023-06-11T04:22:00.266Z,60.52
2023-06-11T04:23:00.307Z,60.67
2023-06-11T04:24:00.327Z,60.69
2023-06-11T04:25:00.319Z,60.70
2023-06-11T04:26:00.382Z,60.47
2023-06-11T04:27:00.370Z,60.73
2023-06-11T04:28:00.390Z,60.86
2023-06-11T04:29:00.391Z,60.93
2023-06-11T04:30:00.451Z,60.69
2023-06-11T04:31:00.486Z,60.54
2023-06-11T04:32:00.526Z,60.49
2023-06-11T04:33:00.639Z,60.24
2023-06-11T04:34:00.529Z,60.11
2023-06-11T04:35:00.558Z,60.16
2023-06-11T04:36:00.579Z,60.22
2023-06-11T04:37:00.614Z,60.32
2023-06-11T04:38:00.614Z,60.29
2023-06-11T04:39:00.613Z,60.26
2023-06-11T04:40:00.630Z,60.16
2023-06-11T04:41:00.654Z,60.15
2023-06-11T04:42:00.668Z,60.14
2023-06-11T04:43:00.651Z,60.08
2023-06-11T04:44:00.672Z,60.15
2023-06-11T04:45:00.655Z,60.14
2023-06-11T04:46:00.666Z,60.09
2023-06-11T04:47:00.698Z,59.98
2023-06-11T04:48:00.729Z,60.05
2023-06-11T04:49:00.669Z,60.12
2023-06-11T04:50:00.669Z,60.28
2023-06-11T04:51:00.702Z,60.42
2023-06-11T04:52:00.712Z,60.39
2023-06-11T04:53:00.719Z,60.17
2023-06-11T04:54:00.730Z,60.18
2023-06-11T04:55:00.763Z,60.14
2023-06-11T04:56:03.087Z,59.95
2023-06-11T04:57:00.747Z,60.02
2023-06-11T04:58:00.707Z,60.20
2023-06-11T04:59:00.721Z,60.01
2023-06-11T05:00:01.453Z,60.00
2023-06-11T05:01:00.712Z,60.11
2023-06-11T05:02:00.776Z,59.99
2023-06-11T05:03:00.725Z,59.89
2023-06-11T05:04:00.790Z,59.85
2023-06-11T05:05:00.737Z,59.97
2023-06-11T05:06:00.701Z,59.89
2023-06-11T05:07:00.672Z,59.83
2023-06-11T05:08:00.663Z,59.69
2023-06-11T05:09:00.633Z,59.72
2023-06-11T05:10:00.658Z,59.88
2023-06-11T05:11:00.637Z,59.85
2023-06-11T05:12:00.653Z,59.87
2023-06-11T05:13:00.606Z,60.07
2023-06-11T05:14:00.602Z,59.80
2023-06-11T05:15:00.608Z,59.68
2023-06-11T05:16:00.629Z,60.00
2023-06-11T05:17:00.697Z,60.05
2023-06-11T05:18:00.642Z,60.10
2023-06-11T05:19:00.596Z,60.06
2023-06-11T05:20:00.597Z,59.92
2023-06-11T05:21:00.604Z,59.82
2023-06-11T05:22:00.553Z,59.70
2023-06-11T05:23:00.645Z,59.81
2023-06-11T05:24:00.629Z,59.67
2023-06-11T05:25:00.613Z,59.76
2023-06-11T05:26:00.560Z,59.57
2023-06-11T05:27:00.530Z,59.66
2023-06-11T05:28:00.499Z,59.48
2023-06-11T05:29:00.517Z,59.28
2023-06-11T05:30:00.522Z,59.44
2023-06-11T05:31:00.551Z,59.93
2023-06-11T05:32:00.565Z,59.56
2023-06-11T05:33:00.596Z,59.52
2023-06-11T05:34:00.496Z,59.07
2023-06-11T05:35:00.482Z,59.41
2023-06-11T05:36:00.489Z,59.44
2023-06-11T05:37:00.481Z,59.68
2023-06-11T05:38:00.460Z,59.68
2023-06-11T05:39:00.482Z,59.68
2023-06-11T05:40:00.481Z,59.11
2023-06-11T05:41:00.504Z,58.89
2023-06-11T05:42:00.530Z,58.80
2023-06-11T05:43:00.569Z,58.87
2023-06-11T05:44:00.547Z,58.69
2023-06-11T05:45:00.548Z,58.35
2023-06-11T05:46:00.683Z,57.97
2023-06-11T05:47:00.744Z,58.18
2023-06-11T05:48:00.611Z,58.61
2023-06-11T05:49:00.603Z,58.87
2023-06-11T05:50:00.619Z,59.05
2023-06-11T05:51:00.668Z,58.70
2023-06-11T05:52:00.711Z,58.55
2023-06-11T05:53:00.772Z,58.62
2023-06-11T05:54:00.821Z,58.50
2023-06-11T05:55:00.926Z,58.26
2023-06-11T05:56:00.902Z,58.41
2023-06-11T05:57:00.974Z,58.01
2023-06-11T05:58:00.979Z,57.95
2023-06-11T05:59:01.024Z,58.07
2023-06-11T06:00:01.069Z,58.28
2023-06-11T06:01:01.141Z,58.17
2023-06-11T06:02:01.161Z,57.89
2023-06-11T06:03:01.277Z,57.55
2023-06-11T06:04:01.370Z,57.26
2023-06-11T06:05:01.360Z,57.91
2023-06-11T06:06:01.369Z,57.37
2023-06-11T06:07:01.391Z,57.26
2023-06-11T06:08:01.343Z,57.08
2023-06-11T06:09:01.350Z,57.00
2023-06-11T06:10:01.374Z,57.04
2023-06-11T06:11:01.353Z,57.31
2023-06-11T06:12:01.425Z,57.37
2023-06-11T06:13:01.426Z,57.90
2023-06-11T06:14:01.475Z,57.86
2023-06-11T06:15:01.535Z,57.92
2023-06-11T06:16:01.680Z,57.77
2023-06-11T06:17:01.617Z,57.30
2023-06-11T06:18:01.600Z,58.07
2023-06-11T06:19:01.681Z,58.37
2023-06-11T06:20:01.750Z,58.19
2023-06-11T06:21:01.793Z,58.11
2023-06-11T06:22:01.818Z,57.19
2023-06-11T06:23:01.777Z,56.68
2023-06-11T06:24:01.912Z,57.46
2023-06-11T06:25:02.260Z,57.78
2023-06-11T06:26:01.919Z,58.13
2023-06-11T06:27:01.911Z,57.59
2023-06-11T06:28:01.942Z,57.69
2023-06-11T06:29:01.950Z,57.73
2023-06-11T06:30:01.983Z,57.80
2023-06-11T06:31:02.048Z,57.27
2023-06-11T06:32:02.266Z,56.55
2023-06-11T06:33:02.135Z,56.78
2023-06-11T06:34:02.132Z,56.84
2023-06-11T06:35:02.224Z,57.62
2023-06-11T06:36:02.197Z,57.20
2023-06-11T06:37:02.192Z,56.87
2023-06-11T06:38:02.242Z,57.33
2023-06-11T06:39:02.268Z,57.06
2023-06-11T06:40:02.330Z,56.54
2023-06-11T06:41:02.358Z,57.12
2023-06-11T06:42:02.395Z,57.11
2023-06-11T06:43:02.427Z,56.94
2023-06-11T06:44:02.478Z,56.62
2023-06-11T06:45:02.471Z,56.51
2023-06-11T06:46:02.501Z,55.60
2023-06-11T06:47:02.509Z,55.63
2023-06-11T06:48:02.585Z,55.22
2023-06-11T06:49:02.616Z,55.33
2023-06-11T06:50:02.637Z,55.59
2023-06-11T06:51:03.387Z,55.31
2023-06-11T06:52:02.641Z,57.09
2023-06-11T06:53:02.705Z,56.62
2023-06-11T06:54:02.687Z,56.17
2023-06-11T06:55:02.711Z,56.27
2023-06-11T06:56:02.730Z,56.23
2023-06-11T06:57:02.801Z,55.59
2023-06-11T06:58:02.788Z,55.71
2023-06-11T06:59:02.826Z,55.41
2023-06-11T07:00:02.827Z,54.97
2023-06-11T07:01:02.867Z,55.03
2023-06-11T07:02:02.833Z,55.20
2023-06-11T07:03:02.937Z,54.81
2023-06-11T07:04:02.964Z,55.76
2023-06-11T07:05:03.010Z,56.06
2023-06-11T07:06:03.098Z,56.71
2023-06-11T07:07:03.124Z,56.56
2023-06-11T07:08:03.090Z,56.06
2023-06-11T07:09:03.120Z,56.32
2023-06-11T07:10:03.202Z,55.89
2023-06-11T07:11:03.229Z,55.19
2023-06-11T07:12:03.277Z,55.88
2023-06-11T07:13:03.315Z,55.93
2023-06-11T07:14:03.372Z,55.75
2023-06-11T07:15:03.415Z,55.68
2023-06-11T07:16:03.468Z,55.55
2023-06-11T07:17:03.453Z,55.69
2023-06-11T07:18:03.555Z,56.14
2023-06-11T07:19:03.525Z,55.78
2023-06-11T07:20:03.665Z,54.98
2023-06-11T07:21:03.620Z,54.82
2023-06-11T07:22:03.629Z,54.81
2023-06-11T07:23:03.620Z,55.34
2023-06-11T07:24:03.736Z,54.79
2023-06-11T07:25:03.747Z,54.96
2023-06-11T07:26:03.874Z,54.73
2023-06-11T07:27:03.782Z,54.60
2023-06-11T07:28:03.775Z,54.30
2023-06-11T07:29:03.824Z,54.56
2023-06-11T07:30:03.846Z,54.66
2023-06-11T07:31:03.961Z,54.51
2023-06-11T07:32:03.891Z,54.07
2023-06-11T07:33:03.951Z,53.83
2023-06-11T07:34:03.930Z,53.93
2023-06-11T07:35:03.970Z,53.64
2023-06-11T07:36:04.023Z,54.02
2023-06-11T07:37:04.075Z,54.35
2023-06-11T07:38:04.066Z,54.29
2023-06-11T07:39:04.061Z,54.15
2023-06-11T07:40:04.167Z,53.76
2023-06-11T07:41:04.172Z,53.91
2023-06-11T07:42:04.182Z,54.54
2023-06-11T07:43:04.203Z,54.88
2023-06-11T07:44:04.233Z,54.77
2023-06-11T07:45:04.250Z,54.83
2023-06-11T07:46:04.417Z,54.99
2023-06-11T07:47:04.440Z,55.02
2023-06-11T07:48:04.404Z,55.17
2023-06-11T07:49:04.394Z,55.51
2023-06-11T07:50:04.383Z,55.52
2023-06-11T07:51:04.394Z,56.29
2023-06-11T07:52:04.466Z,55.19
2023-06-11T07:53:04.557Z,55.31
2023-06-11T07:54:04.527Z,55.59
2023-06-11T07:55:04.521Z,55.72
2023-06-11T07:56:04.558Z,55.66
2023-06-11T07:57:04.573Z,55.39
2023-06-11T07:58:04.595Z,55.04
2023-06-11T07:59:04.587Z,54.83
2023-06-11T08:00:04.672Z,55.30
2023-06-11T08:01:04.722Z,54.52
2023-06-11T08:02:04.774Z,54.37
2023-06-11T08:03:04.866Z,54.69
2023-06-11T08:04:04.858Z,54.52
2023-06-11T08:05:04.890Z,54.08
2023-06-11T08:06:04.949Z,53.98
2023-06-11T08:07:04.874Z,54.27
2023-06-11T08:08:04.921Z,54.50
2023-06-11T08:09:04.963Z,53.84
2023-06-11T08:10:05.037Z,54.26
2023-06-11T08:11:05.117Z,54.09
2023-06-11T08:12:05.147Z,54.08
2023-06-11T08:13:05.171Z,53.72
2023-06-11T08:14:05.306Z,54.28
2023-06-11T08:15:05.244Z,54.63
2023-06-11T08:16:05.326Z,53.24
2023-06-11T08:17:05.492Z,52.99
2023-06-11T08:18:05.509Z,54.10
2023-06-11T08:19:05.434Z,54.30
2023-06-11T08:20:05.506Z,53.54
2023-06-11T08:21:05.515Z,53.37
2023-06-11T08:22:05.548Z,53.27
2023-06-11T08:23:05.533Z,53.37
2023-06-11T08:24:05.629Z,53.39
2023-06-11T08:25:05.626Z,52.28
2023-06-11T08:26:05.646Z,52.68
2023-06-11T08:27:05.679Z,53.65
2023-06-11T08:28:05.728Z,53.82
2023-06-11T08:29:05.728Z,52.34
2023-06-11T08:30:05.792Z,52.79
2023-06-11T08:31:05.808Z,51.89
2023-06-11T08:32:05.897Z,52.47
2023-06-11T08:33:05.856Z,51.28
2023-06-11T08:34:05.881Z,51.70
2023-06-11T08:35:05.896Z,51.86
2023-06-11T08:36:05.933Z,52.08
2023-06-11T08:37:05.950Z,51.92
2023-06-11T08:38:05.948Z,51.88
2023-06-11T08:39:05.948Z,51.89
2023-06-11T08:40:05.936Z,51.19
2023-06-11T08:41:06.002Z,51.65
2023-06-11T08:42:05.957Z,52.28
2023-06-11T08:43:05.982Z,50.75
2023-06-11T08:44:06.010Z,50.78
2023-06-11T08:45:06.024Z,52.15
2023-06-11T08:46:06.076Z,51.06
2023-06-11T08:47:06.065Z,51.25
2023-06-11T08:48:06.110Z,50.35
2023-06-11T08:49:06.048Z,50.92
2023-06-11T08:50:06.098Z,50.29
2023-06-11T08:51:06.123Z,50.28
2023-06-11T08:52:06.200Z,48.93
2023-06-11T08:53:06.191Z,48.26
2023-06-11T08:54:06.252Z,47.81
2023-06-11T08:55:06.297Z,46.20
2023-06-11T08:56:06.278Z,46.01
2023-06-11T08:57:06.272Z,47.09
2023-06-11T08:58:06.288Z,46.81
2023-06-11T08:59:06.290Z,47.43
2023-06-11T09:00:09.367Z,48.02
2023-06-11T09:01:06.318Z,48.46
2023-06-11T09:02:06.344Z,48.25
2023-06-11T09:03:06.345Z,48.46
2023-06-11T09:04:06.372Z,48.63
2023-06-11T09:05:06.320Z,47.51
2023-06-11T09:06:06.234Z,47.34
2023-06-11T09:07:06.271Z,47.53
2023-06-11T09:08:06.245Z,49.24
2023-06-11T09:09:06.255Z,48.75
2023-06-11T09:10:06.274Z,48.05
2023-06-11T09:11:06.214Z,47.58
2023-06-11T09:12:06.229Z,48.13
2023-06-11T09:13:06.177Z,47.18
2023-06-11T09:14:06.190Z,48.28
2023-06-11T09:15:06.193Z,48.34
2023-06-11T09:16:06.265Z,47.95
2023-06-11T09:17:06.193Z,48.14
2023-06-11T09:18:09.650Z,48.24
2023-06-11T09:19:07.203Z,47.65
2023-06-11T09:20:06.153Z,47.40
2023-06-11T09:21:06.181Z,49.03
2023-06-11T09:22:06.148Z,47.71
2023-06-11T09:23:06.147Z,48.10
2023-06-11T09:24:06.161Z,47.44
2023-06-11T09:25:06.105Z,47.56
2023-06-11T09:26:06.117Z,47.37
2023-06-11T09:27:06.090Z,47.90
2023-06-11T09:28:06.078Z,49.05
2023-06-11T09:29:06.118Z,48.26
2023-06-11T09:30:06.076Z,47.33
2023-06-11T09:31:06.096Z,46.88
2023-06-11T09:32:15.933Z,47.74
2023-06-11T09:33:07.148Z,48.99
2023-06-11T09:34:06.049Z,49.86
2023-06-11T09:35:06.051Z,49.09
2023-06-11T09:36:06.068Z,48.24
2023-06-11T09:37:06.065Z,48.78
2023-06-11T09:38:06.024Z,48.34
2023-06-11T09:39:05.994Z,49.20
2023-06-11T09:40:06.020Z,48.09
2023-06-11T09:41:06.028Z,47.76
2023-06-11T09:42:06.066Z,47.89
2023-06-11T09:43:06.208Z,49.05
2023-06-11T09:44:06.193Z,48.40
2023-06-11T09:45:06.257Z,48.53
2023-06-11T09:46:06.370Z,48.07
2023-06-11T09:47:08.228Z,48.19
2023-06-11T09:48:06.473Z,48.53
2023-06-11T09:49:06.326Z,49.49
2023-06-11T09:50:06.378Z,48.14
2023-06-11T09:51:06.376Z,45.21
2023-06-11T09:52:06.352Z,45.39
2023-06-11T09:53:06.355Z,45.60
2023-06-11T09:54:06.317Z,46.16
2023-06-11T09:55:06.345Z,47.47
2023-06-11T09:56:11.556Z,47.04
2023-06-11T09:57:07.302Z,49.74
2023-06-11T09:58:06.316Z,48.54
2023-06-11T09:59:06.348Z,48.46
2023-06-11T10:00:06.246Z,48.69
2023-06-11T10:01:07.695Z,48.29
2023-06-11T10:02:06.268Z,48.44
2023-06-11T10:03:06.372Z,49.78
2023-06-11T10:04:06.250Z,48.80
2023-06-11T10:05:06.271Z,47.83
2023-06-11T10:06:06.248Z,44.98
2023-06-11T10:07:06.230Z,46.69
2023-06-11T10:08:06.297Z,46.02
2023-06-11T10:09:06.238Z,45.46
2023-06-11T10:10:06.196Z,46.44
2023-06-11T10:11:06.252Z,46.34
2023-06-11T10:12:06.222Z,46.76
2023-06-11T10:13:06.150Z,46.12
2023-06-11T10:14:06.201Z,47.12
2023-06-11T10:15:06.240Z,44.81
2023-06-11T10:16:06.321Z,45.47
2023-06-11T10:17:06.351Z,45.74
2023-06-11T10:18:06.467Z,44.66
2023-06-11T10:19:06.431Z,44.20
2023-06-11T10:20:06.493Z,44.08
2023-06-11T10:21:06.577Z,45.06
2023-06-11T10:22:06.582Z,44.47
2023-06-11T10:23:07.752Z,44.19
2023-06-11T10:24:06.633Z,44.12
2023-06-11T10:25:06.608Z,44.17
2023-06-11T10:26:06.663Z,43.97
2023-06-11T10:27:06.765Z,44.46
2023-06-11T10:28:06.590Z,44.44
2023-06-11T10:29:07.313Z,44.01
2023-06-11T10:30:06.733Z,43.75
2023-06-11T10:31:06.760Z,43.65
2023-06-11T10:32:06.784Z,43.27
2023-06-11T10:33:07.019Z,43.39
2023-06-11T10:34:06.973Z,44.42
2023-06-11T10:35:07.054Z,45.00
2023-06-11T10:36:07.031Z,44.93
2023-06-11T10:37:07.077Z,44.54
2023-06-11T10:38:07.124Z,44.73
2023-06-11T10:39:07.651Z,45.46
2023-06-11T10:40:07.278Z,44.69
2023-06-11T10:41:07.271Z,45.51
2023-06-11T10:42:07.231Z,44.89
2023-06-11T10:43:07.328Z,44.09
2023-06-11T10:44:07.296Z,44.00
2023-06-11T10:45:07.308Z,43.71
2023-06-11T10:46:07.321Z,45.28
2023-06-11T10:47:07.397Z,45.81
2023-06-11T10:48:07.535Z,43.83
2023-06-11T10:49:07.445Z,43.81
2023-06-11T10:50:07.604Z,44.70
2023-06-11T10:51:07.604Z,44.48
2023-06-11T10:52:07.654Z,45.33
2023-06-11T10:53:07.710Z,44.18
2023-06-11T10:54:07.732Z,45.13
2023-06-11T10:55:07.913Z,43.44
2023-06-11T10:56:07.815Z,43.66
2023-06-11T10:57:07.857Z,44.73
2023-06-11T10:58:07.884Z,44.96
2023-06-11T10:59:07.973Z,44.26
2023-06-11T11:00:08.007Z,45.03
2023-06-11T11:01:07.978Z,43.99
2023-06-11T11:02:08.053Z,43.82
2023-06-11T11:03:08.077Z,43.43
2023-06-11T11:04:08.097Z,44.36
2023-06-11T11:05:08.158Z,43.47
2023-06-11T11:06:08.156Z,43.46
2023-06-11T11:07:08.221Z,43.27
2023-06-11T11:08:08.226Z,43.46
2023-06-11T11:09:08.250Z,42.09
2023-06-11T11:10:08.257Z,42.59
2023-06-11T11:11:08.300Z,42.99
2023-06-11T11:12:08.264Z,43.85
2023-06-11T11:13:08.269Z,42.06
2023-06-11T11:14:08.271Z,41.45
2023-06-11T11:15:08.437Z,41.55
2023-06-11T11:16:08.374Z,40.74
2023-06-11T11:17:08.413Z,40.95
2023-06-11T11:18:08.372Z,41.67
2023-06-11T11:19:08.356Z,42.26
2023-06-11T11:20:08.410Z,41.80
2023-06-11T11:21:08.466Z,40.82
2023-06-11T11:22:08.531Z,41.06
2023-06-11T11:23:08.598Z,40.99
2023-06-11T11:24:08.665Z,40.14
2023-06-11T11:25:08.884Z,40.36
2023-06-11T11:26:08.676Z,40.76
2023-06-11T11:27:08.701Z,40.55
2023-06-11T11:28:08.679Z,40.89
2023-06-11T11:29:08.687Z,41.22
2023-06-11T11:30:08.822Z,41.44
2023-06-11T11:31:08.738Z,40.53
2023-06-11T11:32:08.795Z,41.07
2023-06-11T11:33:08.910Z,40.32
2023-06-11T11:34:08.909Z,39.95
2023-06-11T11:35:08.921Z,39.98
2023-06-11T11:36:09.046Z,40.40
2023-06-11T11:37:09.047Z,40.69
2023-06-11T11:38:09.167Z,42.47
2023-06-11T11:39:09.057Z,42.48
2023-06-11T11:40:09.157Z,42.68
2023-06-11T11:41:09.170Z,42.79
2023-06-11T11:42:09.152Z,43.08
2023-06-11T11:43:09.199Z,43.37
2023-06-11T11:44:09.191Z,43.59
2023-06-11T11:45:09.144Z,43.50
2023-06-11T11:46:09.226Z,43.90
2023-06-11T11:47:09.255Z,43.74
2023-06-11T11:48:09.605Z,43.95
2023-06-11T11:49:09.335Z,44.17
2023-06-11T11:50:09.553Z,44.53
2023-06-11T11:51:09.453Z,44.98
2023-06-11T11:52:09.441Z,42.58
2023-06-11T11:53:09.448Z,41.79
2023-06-11T11:54:09.519Z,41.32
2023-06-11T11:55:09.578Z,41.83
2023-06-11T11:56:09.597Z,41.04
2023-06-11T11:57:09.587Z,39.53
2023-06-11T11:58:09.570Z,38.86
2023-06-11T11:59:09.599Z,38.26
2023-06-11T12:00:09.894Z,38.11
2023-06-11T12:01:09.621Z,38.29
2023-06-11T12:02:09.714Z,38.58
2023-06-11T12:03:09.824Z,38.01
2023-06-11T12:04:09.765Z,38.34
2023-06-11T12:05:09.836Z,37.14
2023-06-11T12:06:10.010Z,35.29
2023-06-11T12:07:09.921Z,35.49
2023-06-11T12:08:09.972Z,36.04
2023-06-11T12:09:10.007Z,35.22
2023-06-11T12:10:10.365Z,34.64
2023-06-11T12:11:10.498Z,35.72
2023-06-11T12:12:10.170Z,35.92
2023-06-11T12:13:10.215Z,36.25
2023-06-11T12:14:10.215Z,35.95
2023-06-11T12:15:10.205Z,36.26
2023-06-11T12:16:10.318Z,35.66
2023-06-11T12:17:10.280Z,35.42
2023-06-11T12:18:10.284Z,34.94
2023-06-11T12:19:22.709Z,34.99
2023-06-11T12:20:11.573Z,36.87
2023-06-11T12:21:10.291Z,36.09
2023-06-11T12:22:10.356Z,36.42
2023-06-11T12:23:10.323Z,35.56
2023-06-11T12:24:10.398Z,35.24
2023-06-11T12:25:10.374Z,35.00
2023-06-11T12:26:10.300Z,34.21
2023-06-11T12:27:13.010Z,34.52
2023-06-11T12:28:10.306Z,34.02
2023-06-11T12:29:10.247Z,35.31
2023-06-11T12:30:10.486Z,34.44
2023-06-11T12:31:10.264Z,35.37
2023-06-11T12:32:10.259Z,34.49
2023-06-11T12:33:10.328Z,34.54
2023-06-11T12:34:10.224Z,35.10
2023-06-11T12:35:10.206Z,34.35
2023-06-11T12:36:10.206Z,34.89
2023-06-11T12:37:10.208Z,35.07
2023-06-11T12:38:10.212Z,34.97
2023-06-11T12:39:10.190Z,34.52
2023-06-11T12:40:10.537Z,33.64
2023-06-11T12:41:10.190Z,33.96
2023-06-11T12:42:10.200Z,34.88
2023-06-11T12:43:10.196Z,33.87
2023-06-11T12:44:10.160Z,33.77
2023-06-11T12:45:10.160Z,33.49
2023-06-11T12:46:10.193Z,33.81
2023-06-11T12:47:10.115Z,34.75
2023-06-11T12:48:10.224Z,34.36
2023-06-11T12:49:10.151Z,34.79
2023-06-11T12:50:10.614Z,34.16
2023-06-11T12:51:10.145Z,34.44
2023-06-11T12:52:10.095Z,34.21
2023-06-11T12:53:10.098Z,33.71